Timeline UpdatesTrip UpdatesNews PostsPvt PostsTravel TipsAdmin PostsConv PostsFollowed PostsChat RequestsBlog PostsPNR Posts

Disclaimer
Search
 
 
Thu Apr 17, 2014 04:24:45 ISTHomeTrainsΣChainsAtlasPNRForumGalleryNewsFAQTripsMembersLoginFeedback
No Recent News for this Train
Other Trains in the News **new
Latest...
Temporary Stoppage at Mahadevsal Station every Sunday and Monday from 23.07.2013 to 21.08.2013 during Shravani Melaa
Tue Jul 23, 2013 (10:09AM)
⇐ Return Journey: Train# 18029

18030/Shalimar-Mumbai LTT [Kurla] Express

Jul 01 2013 (4:41PM)
Change Departure Station:
Change Arrival Station:
Post a Train Travel TipPost a Train Travel Tip **new
Post a Comment/Question/Picture/VideoPost a Comment/Question/Picture/Video
Pantry/Catering
✕ NO Pantry Car
✓ Catering Avbl
RSA - Rake Sharing
Rake/Coach Composition
LOCO-HCPV-HCPV-SLR-GS-S13-S12-S11-S10-S9-S8-S7-S6-S5-S4-S3-S2-S1-B1-A1-GS-SLR-HCPV-HCPV
Loco
WAP-4 of Howrah shed (ER)
News    PNR    Forum    Time-Table    Availability    Fare Chart    Map    Arr/Dep History    Trips    Gallery    ΣChains    X/O    Timeline    
Travel Time: 0h 34m    0 halts    Distance: 39 km    Avg Speed: 68 km/hr
Type: Mail/Express
Zone: SER/South Eastern
Departs @ 17:50 (Avg 3m late)
Platform# ???
SMTWTFS
Kharagpur Junction/KGP 
Arrives @ 18:24 (Avg 6m late)
Platform# ???
SMTWTFS
Jhargram/JGM 

0 halts. 5 intermediate Stations between Kharagpur Junction and Jhargram

Show ALL intermediate Stations  Show Old Time-Table

#CodeStation NameX/OArrivesAvgDepartsAvgHaltPFDay#KmSpeedElevZoneAddress
1SHMKolkata Shalimar (2)  -15:00+011-112.3265mSERSHIBPUR . DIST- Howrah, West Bengal
2SRCKolkata Santragachi Junction (6)  15:11+715:12+91m11-107.6627mSERDist: Howrah - 711104, West Bengal
3ULBUluberia (6)O  15:36+1115:37+141m11-82.84910mSERdist - howrah, West Bengal
4MCAMecheda (6)X  16:09+816:10+211m--1-56.82610mSERdist - purba Medinipur, West Bengal
5PKUPanskura Junction (6)X  16:39+716:40+201m--1-44.4489mSERPanskura, West Bengal
6KGP»Kharagpur Junction (10)»X  17:35+417:50+315m--10.06942mSERKharagpur, West Bengal
7JGM•Jhargram (4)•X  18:24+618:25+71m--139.18082mSERJhargram, West Bengal
8CKUChakulia  18:47+518:48+61m--168.380126mSERChakulia, Jharkhand
9GTSGhatsila (3)  19:11+419:12+51m--198.955103mSEREast Singhbhum, Jharkhand
10GUDGaludih (4)  19:23+419:24+51m--1108.941120mSEREast Singhbhum, Jharkhand
11RHERakha Mines  19:34+319:35+41m--1115.839118mSEREast Singhbhum, Jharkhand
12TATATatanagar Junction (5)X  20:05+320:10+55m--1135.162164mSER91-657-2423026, Jharkhand
13SINISini Junction  20:36+1220:37+131m--1162.057182mSERNational Highway 33, Jharkhand
14RKSNRajkharsawan Junction  20:53+1120:54+121m--1177.371189mSERWest Singhbhum district, Jharkhand
15CKPChakradharpur (3)X  21:11+1221:16+125m11197.384235mSERChakradharpur (West Singhbhum), Jharkhand
16SWRSonuaX  21:31+1621:32+181m--1218.364287mSERSonua, Jharkhand
17GOLGoilkeraX  21:44+1721:45+181m--1231.155333mSERGoilkera, Jharkhand
18MOUManoharpur  22:15+1722:16+181m--1258.677228mSERManoharpur, Jharkhand
19BNDMBondamunda (3)  22:42+1722:43+181m--1291.920213mSERRourkela, Odisha
20ROURourkela Junction (5)X  23:03+1523:13+1510m21298.466198mSERRourkela, Odisha
21GPRaj Gangpur (3)  23:40+1823:41+181m11328.274237mSERRaj Ganpur, Odisha
22BMBBamra (3)  00:09+1500:10+181m--2362.855259mSERBamra PH : 06642-229268, Odisha
23JSGJharsuguda Junction (5)X  00:50+600:55+85m12399.378236mSERJharsuguda, Odisha
24BRJNBrajrajnagarX  01:04+1601:05+171m--2411.059212mSECRBrajrajnagar, Odisha
25BPHBelpahar  01:14+1601:15+181m--2419.985235mSECRBelpahar, Odisha
26RIGRaigarh (3)  01:51+2001:56+225m--2471.089220mSECRRaigarh, Chhattisgarh
27KHSKharsia  02:19+3102:20+321m--2504.971259mSECRNational Highway 200, Chhattisgarh
28SKTSakti (4)  02:33+3102:34+321m--2520.376237mSECRJanjgir-Champa, Chhattisgarh
29CPHChampa Junction (3)X  02:58+3703:03+355m--2550.765264mSECRNational Highway 200 (07819-245767), Chhattisgarh
30NIANailaX  03:13+3503:14+361m--2561.669273mSECRJanjgir, Chhattisgarh
31AKTAkaltara (4)  03:27+3503:28+361m--2576.529284mSECRDist. Janjgir Champa, Chhattisgarh
32BSPBilaspur Junction (8)  04:25+804:45+1320m32603.749271mSECRBilaspur, Chhattisgarh
33BYLBelha  05:04+1305:05+141m--2619.377269mSECRCollege Road, Chhattisgarh
34BYTBhatapara (4)  05:29+1605:30+171m--2649.982270mSECRBanjari Road, Chhattisgarh
35TLDTilda (3)  05:49+1705:50+181m12676.051291mSECRBanjari Rd, Chhattisgarh
36RRaipur Junction (6)X  06:35+1406:45+1610m12714.270297mSECRRaipur, Chhattisgarh
37DBECDevbaloda CharodaX  07:02+1607:03+171m--2734.135310mSECRBhilai, Chhattisgarh
38BIABhilaiX  07:09+1507:10+161m--2737.540309mSECRBhilai, Chhattisgarh
39BPHBBhilai Power House (3)X  07:17+1407:18+151m--2742.224312mSECRBhilai, Chhattisgarh
40BQRBhilai Nagar (2)X  07:29+1207:30+121m--2746.618298mSECRBhilai, Chhattisgarh
41DURGDurg Junction (6)X  07:45+807:55+810m--2751.187299mSECRPh: 91-788-2322059, Chhattisgarh
42RJNRaj Nandgaon (3)  08:16+2008:21+205m--2781.582313mSECRRajnandgaon, Chhattisgarh
43DGGDongargarh (2)  08:44+2608:45+311m--2813.160353mSECRDongargarh, Chhattisgarh
44SKSSalekasa (2)  09:21+3309:22+341m--2848.874312mSECRRajnandgaon, Chhattisgarh
45AGNAmgaon (2)  09:34+3409:35+361m--2863.646317mSECRGondia, Maharashtra
46GGondia Junction (7)X  10:05+3110:15+3410m--2886.488316mSECRGondia 441601, Maharashtra
47TROTirora (3)X  10:35+3910:36+421m--2915.768282mSECRDist Gondiya, Maharashtra
48TMRTumsar Road (3)X  10:54+3910:55+411m--2936.063267mSECRBhandara, Maharashtra
49BRDBhandara Road (2)  11:12+4111:13+421m--2954.076266mSECRState Highway 252, Maharashtra
50KPKamptee (3)X  11:51+4211:52+441m--21001.931290mSECRMH 441001, Maharashtra
51ITRItwari (3)O  12:12+4212:13+471m--21012.44306mSECRNagpur, Maharashtra
52NGPNagpur Junction (9)X  13:15+1113:40+1025m721016.223314mCRNagpur 440001, Maharashtra
53AJNIAjni (3)  13:48+1713:49+181m--21019.282310mCRNagpur 440003, Maharashtra
54SNISindi (2)  14:21+2114:22+231m--21063.157258mCRWardha, Maharashtra
55SEGMSewagram Junction (5)X  14:53+1814:54+191m--21092.420264mCRWardha, Maharashtra
56WRWardha Junction  15:02+1715:05+163m221095.084289mCRWardha 442001, Maharashtra
57PLOPulgaon Junction (3)  15:26+1915:27+201m221124.670273mCRPulgaon, Maharashtra
58DMNDhamangaon (2)  15:44+2015:45+211m--21144.562300mCRDhamangaon, Maharashtra
59CNDChandur (2)X  16:01+1716:02+181m--21161.230331mCRAmravati Distt, Maharashtra
60BDBadnera Junction (4)  17:00+717:05+85m121190.090335mCRBadnera (Amravati) 444701, Maharashtra
61MZRMurtizapur (3)  17:33+1617:35+172m--21231.774303mCRMurtajapur, Maharashtra
62AKAkola Junction (7)  18:05+1718:10+175m121268.986284mCRAkola-444001, Maharashtra
63PSParas (2)  18:24+2018:25+231m--21288.974281mCRAkola, Maharashtra
64SEGShegaon (2)  18:39+2418:40+271m--21306.182276mCRShegaon 444203, Maharashtra
65JMJalamb Junction (3)X  18:49+2918:50+301m--21318.582259mCRJalamb, Maharashtra
66NNNanduraX  18:59+3219:00+331m--21330.770267mCRNandura, Maharashtra
67MKUMalkapur (2)X  19:24+3219:25+331m121358.662252mCRMalkapur, Maharashtra
68BDWDBodwadX  19:44+3219:45+331m--21378.240294mCRBodwad, Maharashtra
69BSLBhusaval Junction (8)X  20:30+2520:45+2515m521408.560208mCRBhusaval 425201, Maharashtra
70JLJalgaon Junction (4)  21:09+2921:10+311m221432.684213mCRJalgaon 425001, Maharashtra
71PCPachora Junction (4)X  21:44+3321:45+351m--21480.393264mCRPachora 424201, Maharashtra
72CSNChalisgaon Junction (3)  22:14+3822:15+391m--21525.187352mCRChalisgaon 424101, Maharashtra
73NGNNandgaon (3)  22:44+4122:45+431m--21567.356476mCRNandgaon, Maharashtra
74MMRManmad Junction (6)  23:12+4323:15+463m321592.777580mCRManmad 423104, Maharashtra
75LSLasalgaon (3)X  23:34+4623:35+471m--21617.266592mCRLasalgaon, Maharashtra
76NKNasik Road (3)X  00:19+3200:20+351m331665.438563mCRNashik 422101, Maharashtra
77DVLDevlali (3)X  00:29+4200:30+431m231671.234561mCRDist. Nashik 422401, Maharashtra
78IGPIgatpuri (4)XO  01:49+1901:50+251m--31716.118589mCRIgatpuri 422403, Maharashtra
79KSRAKasara (4)X  02:39+2302:40+251m--31730.558290mCRDist. Thane 421602, Maharashtra
80KYNKalyan Junction (8)  03:50+2603:55+575m631797.98710mCRKalyan 421301, Maharashtra
81TNAThane (10)  04:09+3904:10+421m831818.12510mCRThane, Maharashtra
82LTTMumbai Lokmanya Tilak Terminus (5)  04:50+26-331834.6-7mCRMumbai, Maharashtra
Scroll to Top
Scroll to Bottom